Terminal Aerodrome Forecast
Issued by NWS Austin/San Antonio, TX

Home | Current Version | Previous Version | Text Only | Print | Product List | Glossary On
Versions: 1 2 3 4 5 6 7 8 9 10 11 12 13 14 15 16 17 18 19 20 21
000
FTUS44 KEWX 221700
TAFSAT
TAF
KSAT 221726Z 2218/2324 15005KT P6SM FEW050 SCT250
     FM230800 18005KT P6SM FEW012 SCT250
     FM231800 08008KT P6SM FEW050 SCT250=

USA.gov is the U.S. government's official web portal to all federal, state and local government web resources and services.